ESNU/UME METAR and TAF weather

Enter ICAO airport designator
Station Type Date Time Source
ESNU METAR 2018/12/10 19:20 UTC NOAA

ESNU 101920Z 35006KT 9999 -RA OVC006 01/01 Q1007 R14/29//65


Station Type Date Time Source
ESNU Decoded METAR 2018/12/10 19:20 UTC NOAA

Umea Flygplats, Sweden (ESNU) 63-48N 020-17E 14M
Dec 10, 2018 - 02:20 PM EST / 2018.12.10 1920 UTC
Wind: from the N (350 degrees) at 7 MPH (6 KT):0
Visibility: greater than 7 mile(s):0
Sky conditions: overcast
Weather: light rain
Temperature: 33 F (1 C)
Windchill: 26 F (-3 C):1
Dew Point: 33 F (1 C)
Relative Humidity: 100%
Pressure (altimeter): 29.74 in. Hg (1007 hPa)
ob: ESNU 101920Z 35006KT 9999 -RA OVC006 01/01 Q1007 R14/29//65
cycle: 19

Station Type Date Time Source
ESNU TAF 2017/11/01 15:33 UTC NOAA

TAF TAF ESNU 011430Z 0115/0224 13005KT 9999 OVC004
TEMPO 0115/0124 OVC008


Example: see airport list